createdAt,value
2022-10-29T00:01:05.685Z,5.30
2022-10-29T00:03:33.091Z,5.63
2022-10-29T00:06:04.388Z,5.80
2022-10-29T00:08:34.723Z,5.50
2022-10-29T00:11:12.341Z,6.27
2022-10-29T00:13:40.652Z,5.57
2022-10-29T00:16:19.098Z,6.03
2022-10-29T00:18:47.293Z,6.27
2022-10-29T00:21:18.824Z,6.30
2022-10-29T00:23:50.828Z,6.60
2022-10-29T00:26:21.398Z,6.07
2022-10-29T00:28:52.644Z,6.87
2022-10-29T00:31:24.286Z,6.80
2022-10-29T00:33:56.192Z,7.67
2022-10-29T00:36:27.774Z,7.00
2022-10-29T00:38:57.087Z,7.17
2022-10-29T00:41:29.130Z,8.20
2022-10-29T00:44:15.161Z,8.03
2022-10-29T00:46:51.875Z,7.27
2022-10-29T00:49:20.516Z,7.83
2022-10-29T00:51:49.243Z,8.10
2022-10-29T00:54:17.623Z,8.37
2022-10-29T00:56:56.484Z,8.47
2022-10-29T00:59:25.220Z,8.50
2022-10-29T01:01:55.987Z,9.13
2022-10-29T01:04:25.662Z,9.03
2022-10-29T01:06:54.001Z,8.90
2022-10-29T01:09:21.541Z,8.10
2022-10-29T01:12:28.358Z,8.03
2022-10-29T01:15:01.641Z,7.70
2022-10-29T01:17:38.156Z,7.83
2022-10-29T01:20:36.666Z,7.63
2022-10-29T01:23:25.089Z,8.37
2022-10-29T01:26:27.191Z,8.40
2022-10-29T01:29:44.879Z,7.37
2022-10-29T01:32:20.318Z,7.73
2022-10-29T01:35:00.226Z,8.10
2022-10-29T01:38:04.525Z,8.50
2022-10-29T01:41:07.069Z,8.67
2022-10-29T01:43:43.159Z,8.40
2022-10-29T01:46:30.284Z,8.10
2022-10-29T01:49:03.491Z,8.37
2022-10-29T01:51:34.411Z,6.87
2022-10-29T01:54:10.283Z,6.67
2022-10-29T01:56:38.681Z,6.83
2022-10-29T01:59:18.485Z,7.53
2022-10-29T02:02:48.226Z,8.07
2022-10-29T02:05:38.621Z,7.60
2022-10-29T02:08:34.361Z,7.03
2022-10-29T02:11:29.885Z,6.80
2022-10-29T02:13:59.296Z,6.83
2022-10-29T02:16:28.395Z,5.90
2022-10-29T02:18:58.078Z,6.50
2022-10-29T02:21:25.701Z,6.27
2022-10-29T02:23:53.395Z,6.87
2022-10-29T02:26:21.873Z,6.47
2022-10-29T02:28:49.490Z,7.20
2022-10-29T02:31:17.013Z,7.50
2022-10-29T02:33:44.470Z,6.37
2022-10-29T02:36:11.906Z,6.13
2022-10-29T02:38:39.365Z,6.27
2022-10-29T02:41:06.877Z,6.03
2022-10-29T02:43:34.403Z,6.23
2022-10-29T02:46:31.587Z,5.83
2022-10-29T02:48:59.159Z,5.73
2022-10-29T02:51:26.640Z,5.90
2022-10-29T02:53:54.114Z,5.80
2022-10-29T02:56:21.644Z,6.13
2022-10-29T02:58:49.760Z,5.97
2022-10-29T03:01:17.260Z,6.00
2022-10-29T03:03:44.795Z,5.83
2022-10-29T03:06:17.146Z,5.60
2022-10-29T03:08:45.937Z,5.80
2022-10-29T03:11:13.823Z,5.93
2022-10-29T03:13:41.415Z,6.00
2022-10-29T03:16:09.758Z,5.93
2022-10-29T03:18:37.865Z,5.90
2022-10-29T03:21:05.294Z,6.43
2022-10-29T03:23:32.752Z,7.17
2022-10-29T03:26:00.314Z,10.47
2022-10-29T03:28:28.412Z,11.40
2022-10-29T03:30:56.414Z,11.17
2022-10-29T03:33:26.675Z,11.20
2022-10-29T03:36:03.381Z,11.37
2022-10-29T03:38:35.325Z,9.37
2022-10-29T03:41:08.615Z,8.77
2022-10-29T03:43:39.612Z,9.60
2022-10-29T03:46:07.784Z,8.67
2022-10-29T03:48:35.347Z,10.00
2022-10-29T03:51:06.051Z,11.47
2022-10-29T03:53:36.028Z,27.33
2022-10-29T03:56:04.981Z,19.00
2022-10-29T03:58:32.807Z,14.17
2022-10-29T04:01:03.809Z,15.47
2022-10-29T04:03:33.497Z,11.80
2022-10-29T04:06:10.285Z,10.40
2022-10-29T04:08:38.529Z,9.90
2022-10-29T04:11:08.108Z,9.80
2022-10-29T04:13:35.552Z,9.87
2022-10-29T04:16:03.151Z,10.37
2022-10-29T04:18:30.596Z,9.70
2022-10-29T04:23:06.179Z,10.47
2022-10-29T04:29:27.243Z,11.87
2022-10-29T04:31:54.691Z,22.10
2022-10-29T04:34:22.118Z,22.70
2022-10-29T04:36:50.250Z,16.07
2022-10-29T04:39:19.643Z,12.10
2022-10-29T04:41:50.018Z,10.20
2022-10-29T04:44:17.537Z,12.03
2022-10-29T04:46:44.960Z,19.30
2022-10-29T04:49:12.456Z,22.43
2022-10-29T04:51:39.975Z,22.47
2022-10-29T04:54:07.510Z,37.13
2022-10-29T04:56:34.949Z,44.57
2022-10-29T04:59:02.431Z,44.30
2022-10-29T05:01:31.281Z,43.87
2022-10-29T05:04:00.107Z,41.67
2022-10-29T05:06:27.917Z,42.03
2022-10-29T05:08:55.346Z,26.63
2022-10-29T05:11:22.894Z,26.90
2022-10-29T05:13:50.427Z,25.47
2022-10-29T05:16:18.006Z,22.40
2022-10-29T05:18:48.187Z,18.60
2022-10-29T05:21:15.695Z,16.27
2022-10-29T05:23:43.409Z,13.03
2022-10-29T05:26:11.083Z,25.70
2022-10-29T05:28:38.662Z,42.40
2022-10-29T05:31:06.895Z,52.83
2022-10-29T05:33:37.128Z,74.10
2022-10-29T05:36:07.945Z,57.27
2022-10-29T05:38:36.676Z,57.07
2022-10-29T05:41:06.041Z,42.90
2022-10-29T05:43:34.861Z,38.13
2022-10-29T05:46:05.716Z,26.63
2022-10-29T05:48:34.885Z,31.07
2022-10-29T05:51:02.388Z,16.47
2022-10-29T05:53:29.940Z,17.93
2022-10-29T05:55:59.417Z,16.03
2022-10-29T05:58:26.893Z,18.43
2022-10-29T06:00:54.381Z,19.83
2022-10-29T06:03:24.070Z,28.63
2022-10-29T06:05:52.182Z,32.33
2022-10-29T06:08:20.362Z,25.23
2022-10-29T06:10:47.807Z,30.87
2022-10-29T06:13:22.193Z,46.40
2022-10-29T06:15:59.035Z,15.67
2022-10-29T06:18:32.360Z,10.60
2022-10-29T06:21:00.850Z,10.13
2022-10-29T06:23:29.705Z,8.60
2022-10-29T06:26:01.087Z,13.10
2022-10-29T06:28:33.748Z,13.13
2022-10-29T06:31:04.479Z,9.03
2022-10-29T06:33:32.004Z,10.17
2022-10-29T06:36:01.519Z,10.00
2022-10-29T06:38:29.179Z,20.80
2022-10-29T06:40:56.688Z,16.50
2022-10-29T06:43:24.130Z,11.73
2022-10-29T06:45:52.281Z,10.77
2022-10-29T06:48:22.398Z,10.30
2022-10-29T06:50:51.228Z,10.30
2022-10-29T06:53:19.249Z,12.80
2022-10-29T06:55:46.779Z,10.43
2022-10-29T06:58:17.752Z,12.00
2022-10-29T07:00:46.385Z,12.17
2022-10-29T07:03:20.828Z,12.20
2022-10-29T07:05:54.877Z,11.30
2022-10-29T07:08:22.453Z,11.57
2022-10-29T07:10:57.704Z,9.03
2022-10-29T07:13:25.294Z,8.73
2022-10-29T07:15:52.724Z,8.80
2022-10-29T07:18:21.481Z,8.77
2022-10-29T07:20:49.011Z,8.03
2022-10-29T07:23:16.501Z,8.10
2022-10-29T07:25:44.226Z,7.80
2022-10-29T07:28:14.228Z,8.63
2022-10-29T07:30:42.856Z,7.90
2022-10-29T07:33:10.953Z,8.10
2022-10-29T07:35:38.995Z,8.40
2022-10-29T07:38:10.883Z,8.37
2022-10-29T07:40:46.230Z,7.67
2022-10-29T07:43:14.013Z,7.77
2022-10-29T07:45:44.735Z,7.57
2022-10-29T07:48:12.384Z,7.37
2022-10-29T07:50:39.929Z,8.40
2022-10-29T07:53:08.114Z,11.70
2022-10-29T07:55:36.007Z,9.33
2022-10-29T07:58:12.361Z,11.30
2022-10-29T08:00:41.772Z,9.17
2022-10-29T08:03:12.198Z,10.80
2022-10-29T08:05:42.684Z,8.33
2022-10-29T08:08:13.595Z,8.50
2022-10-29T08:10:41.339Z,8.43
2022-10-29T08:13:08.760Z,7.37
2022-10-29T08:15:36.621Z,7.97
2022-10-29T08:18:17.012Z,7.07
2022-10-29T08:20:45.219Z,7.43
2022-10-29T08:23:14.273Z,7.80
2022-10-29T08:25:43.486Z,7.47
2022-10-29T08:28:16.286Z,7.63
2022-10-29T08:30:47.319Z,7.87
2022-10-29T08:33:14.791Z,7.60
2022-10-29T08:35:42.254Z,7.07
2022-10-29T08:38:10.012Z,7.27
2022-10-29T08:41:07.621Z,7.23
2022-10-29T08:44:08.393Z,8.07
2022-10-29T08:46:50.901Z,7.97
2022-10-29T08:49:52.280Z,7.77
2022-10-29T08:52:34.172Z,8.00
2022-10-29T08:55:27.486Z,7.70
2022-10-29T08:58:03.610Z,7.30
2022-10-29T09:00:38.628Z,6.87
2022-10-29T09:03:13.597Z,7.13
2022-10-29T09:06:09.964Z,6.20
2022-10-29T09:08:58.838Z,6.30
2022-10-29T09:11:56.168Z,7.20
2022-10-29T09:15:12.999Z,6.60
2022-10-29T09:18:07.364Z,5.90
2022-10-29T09:20:59.342Z,5.73
2022-10-29T09:23:47.717Z,5.73
2022-10-29T09:26:33.838Z,5.57
2022-10-29T09:29:32.529Z,4.40
2022-10-29T09:32:27.560Z,5.00
2022-10-29T09:35:14.906Z,4.70
2022-10-29T09:37:57.520Z,4.33
2022-10-29T09:40:39.266Z,4.87
2022-10-29T09:43:53.351Z,4.63
2022-10-29T09:46:41.324Z,3.60
2022-10-29T09:49:45.028Z,5.40
2022-10-29T09:52:26.614Z,5.17
2022-10-29T09:54:55.884Z,4.50
2022-10-29T09:57:29.533Z,6.10
2022-10-29T10:00:01.876Z,4.70
2022-10-29T10:03:02.923Z,5.10
2022-10-29T10:06:00.913Z,5.20
2022-10-29T10:08:28.733Z,5.10
2022-10-29T10:11:06.182Z,5.67
2022-10-29T10:13:38.500Z,5.07
2022-10-29T10:16:07.185Z,4.20
2022-10-29T10:21:24.488Z,4.20
2022-10-29T10:23:57.059Z,4.23
2022-10-29T10:26:44.016Z,3.60
2022-10-29T10:29:21.181Z,4.10
2022-10-29T10:32:19.437Z,3.23
2022-10-29T10:34:46.884Z,3.50
2022-10-29T10:37:21.661Z,4.00
2022-10-29T10:40:05.799Z,4.10
2022-10-29T10:42:39.510Z,3.73
2022-10-29T10:45:34.860Z,3.53
2022-10-29T10:48:02.983Z,3.60
2022-10-29T10:50:36.279Z,3.33
2022-10-29T10:53:21.530Z,3.33
2022-10-29T10:56:00.498Z,3.10
2022-10-29T10:58:35.771Z,3.57
2022-10-29T11:01:20.984Z,3.30
2022-10-29T11:04:17.942Z,2.90
2022-10-29T11:06:51.125Z,3.03
2022-10-29T11:09:32.975Z,2.55
2022-10-29T11:12:22.268Z,2.78
2022-10-29T11:15:16.832Z,2.90
2022-10-29T11:18:12.052Z,2.72
2022-10-29T11:20:47.675Z,2.80
2022-10-29T11:23:29.745Z,2.10
2022-10-29T11:26:25.669Z,1.85
2022-10-29T11:29:34.708Z,1.83
2022-10-29T11:32:28.691Z,2.47
2022-10-29T11:35:19.581Z,2.10
2022-10-29T11:38:05.224Z,1.80
2022-10-29T11:40:58.460Z,1.48
2022-10-29T11:43:26.258Z,1.80
2022-10-29T11:46:08.997Z,3.03
2022-10-29T11:49:02.488Z,2.08
2022-10-29T11:51:51.975Z,1.90
2022-10-29T11:55:07.921Z,2.00
2022-10-29T11:57:56.100Z,2.30
2022-10-29T12:00:25.092Z,1.60
2022-10-29T12:03:24.824Z,1.58
2022-10-29T12:06:14.794Z,1.90
2022-10-29T12:08:51.194Z,1.80
2022-10-29T12:11:46.597Z,1.60
2022-10-29T12:14:29.986Z,1.80
2022-10-29T12:17:11.193Z,1.60
2022-10-29T12:19:57.006Z,6.03
2022-10-29T12:22:39.711Z,2.47
2022-10-29T12:25:37.674Z,2.60
2022-10-29T12:28:30.288Z,2.45
2022-10-29T12:31:29.976Z,1.40
2022-10-29T12:34:15.143Z,2.35
2022-10-29T12:37:12.624Z,2.03
2022-10-29T12:39:58.038Z,1.77
2022-10-29T12:42:28.023Z,2.17
2022-10-29T12:46:18.600Z,1.95
2022-10-29T12:49:23.592Z,2.00
2022-10-29T12:51:58.119Z,2.00
2022-10-29T12:54:46.619Z,2.13
2022-10-29T12:57:16.653Z,2.40
2022-10-29T12:59:45.451Z,2.03
2022-10-29T13:02:38.716Z,2.05
2022-10-29T13:05:14.452Z,1.92
2022-10-29T13:08:05.174Z,1.95
2022-10-29T13:10:32.585Z,1.90
2022-10-29T13:13:31.662Z,1.90
2022-10-29T13:16:07.598Z,1.80
2022-10-29T13:19:01.932Z,2.30
2022-10-29T13:52:24.915Z,1.67
2022-10-29T13:55:12.414Z,1.90
2022-10-29T13:58:25.634Z,2.10
2022-10-29T14:00:57.177Z,2.83
2022-10-29T14:03:49.504Z,1.65
2022-10-29T14:06:29.110Z,2.28
2022-10-29T14:09:26.553Z,1.85
2022-10-29T14:12:05.456Z,1.83
2022-10-29T14:14:55.921Z,2.13
2022-10-29T14:17:43.581Z,2.85
2022-10-29T14:20:40.176Z,1.67
2022-10-29T14:23:10.645Z,2.30
2022-10-29T14:25:39.563Z,2.42
2022-10-29T14:28:26.343Z,2.72
2022-10-29T14:31:15.002Z,8.02
2022-10-29T14:33:56.739Z,2.42
2022-10-29T14:36:30.021Z,1.90
2022-10-29T14:39:28.827Z,1.90
2022-10-29T14:42:01.134Z,1.83
2022-10-29T14:44:32.950Z,2.72
2022-10-29T14:47:19.529Z,2.15
2022-10-29T14:49:50.621Z,2.80
2022-10-29T14:52:31.240Z,2.47
2022-10-29T14:55:30.195Z,2.13
2022-10-29T14:58:28.369Z,2.53
2022-10-29T15:01:05.898Z,2.60
2022-10-29T15:03:35.817Z,3.58
2022-10-29T15:06:16.294Z,3.42
2022-10-29T15:09:00.629Z,5.80
2022-10-29T15:11:39.752Z,5.28
2022-10-29T15:14:37.714Z,4.40
2022-10-29T15:17:27.388Z,4.18
2022-10-29T15:20:03.864Z,5.05
2022-10-29T15:22:40.602Z,4.18
2022-10-29T15:25:17.271Z,4.35
2022-10-29T15:27:45.247Z,4.05
2022-10-29T15:30:22.130Z,4.18
2022-10-29T15:32:50.888Z,4.25
2022-10-29T15:35:23.699Z,4.43
2022-10-29T15:37:51.761Z,3.75
2022-10-29T15:40:25.435Z,3.33
2022-10-29T15:42:55.745Z,3.35
2022-10-29T15:45:27.561Z,4.30
2022-10-29T15:48:30.054Z,4.45
2022-10-29T15:50:57.745Z,4.53
2022-10-29T15:53:28.490Z,5.50
2022-10-29T15:55:58.657Z,4.30
2022-10-29T15:58:26.218Z,4.33
2022-10-29T16:00:53.730Z,5.10
2022-10-29T16:03:27.083Z,4.67
2022-10-29T16:05:59.173Z,5.10
2022-10-29T16:08:34.980Z,4.63
2022-10-29T16:11:08.307Z,5.27
2022-10-29T16:13:40.496Z,5.37
2022-10-29T16:16:23.857Z,5.70
2022-10-29T16:18:53.525Z,6.57
2022-10-29T16:21:27.007Z,12.20
2022-10-29T16:24:03.814Z,12.17
2022-10-29T16:26:35.828Z,16.03
2022-10-29T16:29:03.374Z,18.23
2022-10-29T16:31:33.184Z,19.30
2022-10-29T16:34:05.327Z,19.47
2022-10-29T16:36:34.432Z,19.93
2022-10-29T16:39:03.141Z,19.07
2022-10-29T16:41:33.648Z,20.37
2022-10-29T16:44:01.944Z,21.07
2022-10-29T16:46:30.054Z,19.10
2022-10-29T16:48:58.817Z,18.07
2022-10-29T16:51:26.312Z,17.93
2022-10-29T16:53:54.670Z,18.90
2022-10-29T16:56:22.181Z,17.43
2022-10-29T16:58:49.954Z,16.33
2022-10-29T17:01:17.654Z,16.63
2022-10-29T17:03:45.287Z,16.80
2022-10-29T17:06:15.226Z,16.37
2022-10-29T17:08:42.740Z,16.43
2022-10-29T17:11:10.381Z,15.23
2022-10-29T17:13:38.592Z,13.83
2022-10-29T17:16:16.633Z,14.40
2022-10-29T17:18:44.085Z,13.20
2022-10-29T17:21:14.205Z,10.63
2022-10-29T17:23:42.028Z,7.50
2022-10-29T17:26:09.620Z,7.17
2022-10-29T17:28:38.595Z,6.40
2022-10-29T17:31:08.613Z,6.10
2022-10-29T17:33:37.329Z,6.30
2022-10-29T17:36:13.193Z,6.87
2022-10-29T17:38:41.095Z,7.03
2022-10-29T17:41:10.103Z,6.40
2022-10-29T17:43:40.641Z,5.77
2022-10-29T17:46:08.225Z,5.07
2022-10-29T17:48:36.788Z,4.67
2022-10-29T17:51:04.548Z,4.70
2022-10-29T17:53:32.589Z,5.23
2022-10-29T17:56:01.362Z,6.07
2022-10-29T17:58:29.272Z,5.20
2022-10-29T18:01:28.588Z,5.77
2022-10-29T18:04:06.741Z,12.00
2022-10-29T18:06:34.328Z,8.47
2022-10-29T18:09:01.908Z,5.83
2022-10-29T18:11:30.340Z,4.80
2022-10-29T18:14:03.832Z,4.67
2022-10-29T18:16:33.845Z,4.00
2022-10-29T18:19:03.208Z,4.80
2022-10-29T18:21:31.902Z,4.30
2022-10-29T18:24:02.315Z,3.23
2022-10-29T18:26:37.942Z,3.80
2022-10-29T18:29:13.176Z,2.80
2022-10-29T18:31:45.067Z,2.77
2022-10-29T18:34:17.072Z,2.53
2022-10-29T18:36:48.975Z,2.60
2022-10-29T18:39:18.118Z,2.20
2022-10-29T18:41:45.567Z,2.77
2022-10-29T18:44:15.929Z,4.27
2022-10-29T18:46:43.569Z,3.73
2022-10-29T18:49:15.515Z,3.33
2022-10-29T18:51:43.598Z,4.10
2022-10-29T18:54:14.978Z,6.90
2022-10-29T18:56:42.824Z,7.33
2022-10-29T18:59:12.836Z,4.30
2022-10-29T19:01:40.834Z,4.60
2022-10-29T19:04:13.487Z,4.67
2022-10-29T19:06:41.388Z,4.77
2022-10-29T19:09:10.805Z,5.93
2022-10-29T19:11:40.474Z,13.30
2022-10-29T19:14:14.409Z,13.43
2022-10-29T19:16:42.236Z,11.53
2022-10-29T19:19:14.406Z,11.53
2022-10-29T19:21:43.250Z,10.30
2022-10-29T19:24:15.546Z,11.07
2022-10-29T19:26:43.944Z,11.83
2022-10-29T19:29:14.001Z,10.37
2022-10-29T19:31:42.843Z,10.27
2022-10-29T19:34:10.667Z,11.10
2022-10-29T19:36:40.331Z,9.30
2022-10-29T19:39:08.717Z,10.83
2022-10-29T19:41:37.836Z,10.00
2022-10-29T19:44:07.310Z,8.87
2022-10-29T19:46:36.733Z,8.57
2022-10-29T19:49:04.280Z,7.27
2022-10-29T19:51:31.779Z,8.27
2022-10-29T19:54:02.055Z,8.00
2022-10-29T19:56:29.747Z,8.10
2022-10-29T19:59:00.627Z,8.77
2022-10-29T20:01:28.265Z,8.50
2022-10-29T20:03:57.795Z,7.83
2022-10-29T20:06:25.512Z,7.80
2022-10-29T20:08:54.436Z,6.63
2022-10-29T20:11:23.704Z,5.73
2022-10-29T20:13:51.877Z,5.70
2022-10-29T20:16:21.793Z,5.53
2022-10-29T20:18:50.524Z,5.10
2022-10-29T20:21:18.478Z,4.80
2022-10-29T20:23:47.228Z,4.87
2022-10-29T20:26:15.971Z,5.10
2022-10-29T20:28:48.487Z,4.97
2022-10-29T20:31:27.816Z,5.03
2022-10-29T20:34:00.022Z,5.00
2022-10-29T20:36:32.712Z,5.23
2022-10-29T20:39:00.835Z,4.33
2022-10-29T20:41:29.240Z,4.47
2022-10-29T20:44:01.393Z,4.97
2022-10-29T20:46:29.844Z,5.80
2022-10-29T20:48:57.465Z,5.23
2022-10-29T20:51:29.618Z,5.37
2022-10-29T20:53:59.287Z,4.77
2022-10-29T20:56:28.190Z,4.00
2022-10-29T20:58:55.867Z,4.87
2022-10-29T21:01:26.214Z,5.00
2022-10-29T21:03:53.989Z,5.00
2022-10-29T21:06:21.797Z,4.47
2022-10-29T21:08:52.127Z,5.03
2022-10-29T21:11:22.017Z,3.47
2022-10-29T21:13:50.414Z,3.60
2022-10-29T21:16:48.715Z,3.77
2022-10-29T21:19:16.162Z,3.70
2022-10-29T21:21:43.597Z,3.50
2022-10-29T21:24:11.034Z,3.23
2022-10-29T21:26:38.448Z,3.20
2022-10-29T21:29:06.036Z,3.30
2022-10-29T21:31:33.459Z,3.40
2022-10-29T21:34:01.251Z,3.07
2022-10-29T21:36:28.709Z,3.20
2022-10-29T21:38:56.408Z,3.77
2022-10-29T21:41:23.880Z,3.33
2022-10-29T21:43:51.353Z,3.47
2022-10-29T21:46:18.795Z,3.33
2022-10-29T21:48:46.341Z,12.10
2022-10-29T21:51:17.635Z,16.00
2022-10-29T21:53:45.112Z,15.63
2022-10-29T21:56:14.678Z,15.77
2022-10-29T21:58:42.608Z,19.37
2022-10-29T22:01:16.293Z,9.63
2022-10-29T22:03:47.941Z,5.40
2022-10-29T22:06:21.616Z,4.03
2022-10-29T22:08:55.590Z,3.80
2022-10-29T22:11:24.726Z,3.77
2022-10-29T22:13:53.579Z,4.30
2022-10-29T22:16:22.367Z,4.07
2022-10-29T22:18:50.127Z,3.47
2022-10-29T22:21:22.093Z,3.67
2022-10-29T22:23:59.189Z,3.80
2022-10-29T22:26:29.771Z,4.50
2022-10-29T22:28:57.732Z,3.97
2022-10-29T22:31:25.859Z,3.70
2022-10-29T22:33:53.773Z,3.60
2022-10-29T22:36:24.444Z,3.87
2022-10-29T22:38:57.323Z,4.50
2022-10-29T22:41:26.298Z,5.77
2022-10-29T22:44:01.295Z,5.03
2022-10-29T22:46:30.722Z,5.07
2022-10-29T22:48:58.577Z,4.37
2022-10-29T22:51:30.028Z,4.10
2022-10-29T22:54:00.433Z,4.50
2022-10-29T22:56:32.752Z,4.33
2022-10-29T22:59:00.931Z,4.27
2022-10-29T23:01:32.011Z,4.37
2022-10-29T23:04:03.111Z,4.40
2022-10-29T23:06:31.006Z,4.37
2022-10-29T23:08:59.045Z,5.30
2022-10-29T23:11:29.604Z,12.00
2022-10-29T23:14:02.117Z,15.97
2022-10-29T23:16:32.903Z,10.67
2022-10-29T23:19:03.858Z,6.90
2022-10-29T23:21:31.768Z,5.23
2022-10-29T23:23:59.834Z,4.10
2022-10-29T23:26:27.777Z,4.57
2022-10-29T23:28:55.587Z,4.17
2022-10-29T23:31:26.265Z,4.23
2022-10-29T23:33:56.243Z,4.20
2022-10-29T23:36:25.834Z,4.37
2022-10-29T23:38:59.780Z,3.83
2022-10-29T23:41:31.879Z,4.07
2022-10-29T23:44:02.491Z,4.10
2022-10-29T23:46:30.011Z,4.07
2022-10-29T23:48:57.425Z,4.10
2022-10-29T23:51:24.980Z,4.10
2022-10-29T23:53:56.414Z,4.23
2022-10-29T23:56:26.076Z,4.37
2022-10-29T23:58:53.547Z,4.10
